createdAt,value
2022-10-01T00:02:00.485Z,35.78
2022-10-01T00:04:28.390Z,35.20
2022-10-01T00:06:55.570Z,33.42
2022-10-01T00:09:22.706Z,37.42
2022-10-01T00:11:49.695Z,43.15
2022-10-01T00:14:17.539Z,35.90
2022-10-01T00:16:44.585Z,41.92
2022-10-01T00:19:15.202Z,35.58
2022-10-01T00:21:42.868Z,42.05
2022-10-01T00:24:14.783Z,37.42
2022-10-01T00:26:42.694Z,39.80
2022-10-01T00:29:14.613Z,42.60
2022-10-01T00:31:42.529Z,43.03
2022-10-01T00:34:13.611Z,45.67
2022-10-01T00:36:42.314Z,42.83
2022-10-01T00:39:11.480Z,55.30
2022-10-01T00:41:38.706Z,52.05
2022-10-01T00:44:27.554Z,50.20
2022-10-01T00:46:59.727Z,52.38
2022-10-01T00:49:29.690Z,62.28
2022-10-01T00:52:05.398Z,56.90
2022-10-01T00:54:41.500Z,65.00
2022-10-01T00:57:10.723Z,59.85
2022-10-01T00:59:38.323Z,62.10
2022-10-01T01:02:05.479Z,50.60
2022-10-01T01:04:32.887Z,52.50
2022-10-01T01:07:02.467Z,58.25
2022-10-01T01:09:37.064Z,52.03
2022-10-01T01:12:26.107Z,50.50
2022-10-01T01:15:10.470Z,57.38
2022-10-01T01:17:56.341Z,60.67
2022-10-01T01:20:47.974Z,52.38
2022-10-01T01:23:15.033Z,64.15
2022-10-01T01:25:53.340Z,55.42
2022-10-01T01:28:31.692Z,59.17
2022-10-01T01:31:08.395Z,58.42
2022-10-01T01:33:39.093Z,65.32
2022-10-01T01:36:16.442Z,61.38
2022-10-01T01:38:50.030Z,69.82
2022-10-01T01:41:20.437Z,75.63
2022-10-01T01:46:20.212Z,59.90
2022-10-01T01:48:51.633Z,60.80
2022-10-01T01:51:26.215Z,71.40
2022-10-01T01:53:54.778Z,73.20
2022-10-01T01:56:22.191Z,75.80
2022-10-01T01:58:49.267Z,79.90
2022-10-01T02:01:42.678Z,73.40
2022-10-01T02:04:54.942Z,75.63
2022-10-01T02:07:37.590Z,78.40
2022-10-01T02:10:17.576Z,81.70
2022-10-01T02:12:47.552Z,78.00
2022-10-01T02:15:27.677Z,84.05
2022-10-01T02:18:06.919Z,85.05
2022-10-01T02:20:46.231Z,103.18
2022-10-01T02:23:17.599Z,82.95
2022-10-01T02:25:49.284Z,89.22
2022-10-01T02:28:21.542Z,84.38
2022-10-01T02:30:51.581Z,79.70
2022-10-01T02:33:25.025Z,83.47
2022-10-01T02:35:56.333Z,85.38
2022-10-01T02:38:25.033Z,100.68
2022-10-01T02:40:57.626Z,81.13
2022-10-01T02:43:54.129Z,108.30
2022-10-01T02:46:28.562Z,112.97
2022-10-01T02:48:57.564Z,91.43
2022-10-01T02:51:43.549Z,81.25
2022-10-01T02:54:27.025Z,83.53
2022-10-01T02:57:13.747Z,89.15
2022-10-01T02:59:40.861Z,111.35
2022-10-01T03:02:08.248Z,108.90
2022-10-01T03:04:35.271Z,106.47
2022-10-01T03:07:04.483Z,105.85
2022-10-01T03:09:32.289Z,169.82
2022-10-01T03:12:00.337Z,191.32
2022-10-01T03:14:28.493Z,107.28
2022-10-01T03:16:55.649Z,142.10
2022-10-01T03:19:22.689Z,197.30
2022-10-01T03:21:49.784Z,121.60
2022-10-01T03:24:17.395Z,164.93
2022-10-01T03:26:45.309Z,135.32
2022-10-01T03:29:13.634Z,115.60
2022-10-01T03:31:41.234Z,313.70
2022-10-01T03:34:08.784Z,487.80
2022-10-01T03:36:35.932Z,173.38
2022-10-01T03:39:03.931Z,165.98
2022-10-01T03:41:31.664Z,181.88
2022-10-01T03:44:00.686Z,288.90
2022-10-01T03:46:28.276Z,574.50
2022-10-01T03:48:57.758Z,150.57
2022-10-01T03:51:24.779Z,120.43
2022-10-01T03:53:52.294Z,278.77
2022-10-01T03:56:19.831Z,448.33
2022-10-01T03:58:47.079Z,191.15
2022-10-01T04:01:14.930Z,213.23
2022-10-01T04:03:44.025Z,259.35
2022-10-01T04:06:11.669Z,191.00
2022-10-01T04:08:39.179Z,294.88
2022-10-01T04:11:07.764Z,418.45
2022-10-01T04:13:35.735Z,211.60
2022-10-01T04:16:04.093Z,293.20
2022-10-01T04:18:32.444Z,200.80
2022-10-01T04:20:59.527Z,200.40
2022-10-01T04:23:26.859Z,163.32
2022-10-01T04:25:54.086Z,202.90
2022-10-01T04:28:21.341Z,149.77
2022-10-01T04:30:48.875Z,275.38
2022-10-01T04:33:17.175Z,189.90
2022-10-01T04:35:44.394Z,283.55
2022-10-01T04:38:15.836Z,530.30
2022-10-01T04:40:43.768Z,432.83
2022-10-01T04:43:13.385Z,316.30
2022-10-01T04:45:40.481Z,501.33
2022-10-01T04:48:07.461Z,322.48
2022-10-01T04:50:35.491Z,327.63
2022-10-01T04:53:03.207Z,366.23
2022-10-01T04:55:30.207Z,205.63
2022-10-01T04:57:57.238Z,330.67
2022-10-01T05:00:26.539Z,347.58
2022-10-01T05:02:53.996Z,316.98
2022-10-01T05:05:24.114Z,139.90
2022-10-01T05:07:51.430Z,134.98
2022-10-01T05:10:21.590Z,118.32
2022-10-01T05:12:51.803Z,110.78
2022-10-01T05:15:19.595Z,226.40
2022-10-01T05:17:47.622Z,186.45
2022-10-01T05:20:21.719Z,171.25
2022-10-01T05:22:52.168Z,151.18
2022-10-01T05:27:48.324Z,126.03
2022-10-01T05:30:24.456Z,187.50
2022-10-01T05:33:00.718Z,154.60
2022-10-01T05:35:28.012Z,151.80
2022-10-01T05:38:02.998Z,153.07
2022-10-01T05:40:30.815Z,145.82
2022-10-01T05:42:59.740Z,148.95
2022-10-01T05:45:31.348Z,106.70
2022-10-01T05:48:01.140Z,117.88
2022-10-01T05:50:31.731Z,97.28
2022-10-01T05:52:59.852Z,143.32
2022-10-01T05:55:31.966Z,126.40
2022-10-01T05:58:13.271Z,97.97
2022-10-01T06:00:43.074Z,92.28
2022-10-01T06:03:15.928Z,105.47
2022-10-01T06:05:44.984Z,111.05
2022-10-01T06:08:13.329Z,111.07
2022-10-01T06:10:41.525Z,119.32
2022-10-01T06:13:08.566Z,120.85
2022-10-01T06:15:38.619Z,152.40
2022-10-01T06:18:12.549Z,117.44
2022-10-01T06:20:41.174Z,128.05
2022-10-01T06:23:12.624Z,94.95
2022-10-01T06:25:41.941Z,105.60
2022-10-01T06:28:10.983Z,87.80
2022-10-01T06:30:40.120Z,97.60
2022-10-01T06:33:09.880Z,87.82
2022-10-01T06:35:42.762Z,182.93
2022-10-01T06:38:10.940Z,131.23
2022-10-01T06:40:38.592Z,99.03
2022-10-01T06:43:08.150Z,67.20
2022-10-01T06:45:42.702Z,62.00
2022-10-01T06:48:14.139Z,78.70
2022-10-01T06:50:43.335Z,66.90
2022-10-01T06:53:10.851Z,67.50
2022-10-01T06:55:38.592Z,82.47
2022-10-01T06:58:16.493Z,103.65
2022-10-01T07:00:44.537Z,86.15
2022-10-01T07:03:21.638Z,77.20
2022-10-01T07:05:50.612Z,90.75
2022-10-01T07:08:18.058Z,173.50
2022-10-01T07:10:45.772Z,109.25
2022-10-01T07:13:18.509Z,94.95
2022-10-01T07:15:46.802Z,95.65
2022-10-01T07:18:14.687Z,77.10
2022-10-01T07:20:41.970Z,78.70
2022-10-01T07:23:12.215Z,92.30
2022-10-01T07:25:40.695Z,75.60
2022-10-01T07:28:17.161Z,57.83
2022-10-01T07:30:47.702Z,58.38
2022-10-01T07:33:19.197Z,65.15
2022-10-01T07:35:48.205Z,50.83
2022-10-01T07:38:16.931Z,58.92
2022-10-01T07:40:44.479Z,52.95
2022-10-01T07:43:15.162Z,53.65
2022-10-01T07:48:10.024Z,48.72
2022-10-01T07:50:37.249Z,52.03
2022-10-01T07:53:04.763Z,50.78
2022-10-01T07:55:32.891Z,48.63
2022-10-01T07:58:02.200Z,43.28
2022-10-01T08:00:33.562Z,46.28
2022-10-01T08:03:01.376Z,49.20
2022-10-01T08:05:31.536Z,49.95
2022-10-01T08:08:07.505Z,44.38
2022-10-01T08:10:36.929Z,42.83
2022-10-01T08:13:14.631Z,41.40
2022-10-01T08:15:47.141Z,42.78
2022-10-01T08:18:15.003Z,41.05
2022-10-01T08:20:42.505Z,39.20
2022-10-01T08:23:11.845Z,40.20
2022-10-01T08:25:39.921Z,39.10
2022-10-01T08:28:09.312Z,35.78
2022-10-01T08:30:39.777Z,37.20
2022-10-01T08:35:34.695Z,39.00
2022-10-01T08:38:06.787Z,40.17
2022-10-01T08:40:39.331Z,35.80
2022-10-01T08:43:12.751Z,38.70
2022-10-01T08:45:46.197Z,37.40
2022-10-01T08:48:35.237Z,38.78
2022-10-01T08:51:26.608Z,39.75
2022-10-01T08:53:59.991Z,42.20
2022-10-01T08:56:40.829Z,36.92
2022-10-01T08:59:40.682Z,38.20
2022-10-01T09:02:30.077Z,40.88
2022-10-01T09:05:04.919Z,39.93
2022-10-01T09:08:24.798Z,40.88
2022-10-01T09:11:07.330Z,37.45
2022-10-01T09:14:12.726Z,40.17
2022-10-01T09:17:25.577Z,35.80
2022-10-01T09:20:16.594Z,36.97
2022-10-01T09:23:12.385Z,50.22
2022-10-01T09:25:41.442Z,40.40
2022-10-01T09:28:16.482Z,36.45
2022-10-01T09:31:09.133Z,41.00
2022-10-01T09:33:44.380Z,45.10
2022-10-01T09:36:16.979Z,43.28
2022-10-01T09:39:22.296Z,40.53
2022-10-01T09:41:49.958Z,39.95
2022-10-01T09:44:23.135Z,39.30
2022-10-01T09:46:50.209Z,40.70
2022-10-01T09:49:25.768Z,39.15
2022-10-01T09:51:58.787Z,32.88
2022-10-01T09:54:43.756Z,43.17
2022-10-01T09:57:22.300Z,40.55
2022-10-01T10:00:03.141Z,41.05
2022-10-01T10:02:36.543Z,42.50
2022-10-01T10:05:06.323Z,34.33
2022-10-01T10:07:35.385Z,36.30
2022-10-01T10:10:25.525Z,37.45
2022-10-01T10:13:04.344Z,32.35
2022-10-01T10:15:33.355Z,36.15
2022-10-01T10:18:09.293Z,34.42
2022-10-01T10:20:43.710Z,45.53
2022-10-01T10:23:22.322Z,32.70
2022-10-01T10:25:57.709Z,28.63
2022-10-01T10:28:26.075Z,32.78
2022-10-01T10:30:55.355Z,28.13
2022-10-01T10:33:27.615Z,30.55
2022-10-01T10:36:23.323Z,29.52
2022-10-01T10:38:53.853Z,31.60
2022-10-01T10:43:57.884Z,30.92
2022-10-01T10:46:29.840Z,32.53
2022-10-01T10:49:06.750Z,35.97
2022-10-01T10:51:56.026Z,36.83
2022-10-01T10:54:37.795Z,33.90
2022-10-01T10:57:31.368Z,32.33
2022-10-01T11:00:17.466Z,33.92
2022-10-01T11:03:00.373Z,34.85
2022-10-01T11:05:32.278Z,34.17
2022-10-01T11:08:08.532Z,33.10
2022-10-01T11:10:38.777Z,30.55
2022-10-01T11:13:52.856Z,32.53
2022-10-01T11:17:10.298Z,28.17
2022-10-01T11:20:04.516Z,33.20
2022-10-01T11:23:16.660Z,29.23
2022-10-01T11:26:03.385Z,32.28
2022-10-01T11:28:56.295Z,29.42
2022-10-01T11:31:32.054Z,31.23
2022-10-01T11:34:06.121Z,28.45
2022-10-01T11:36:39.787Z,27.35
2022-10-01T11:39:19.188Z,25.58
2022-10-01T11:41:57.419Z,26.43
2022-10-01T11:45:14.562Z,27.15
2022-10-01T11:47:54.948Z,25.88
2022-10-01T11:50:28.167Z,29.42
2022-10-01T11:53:19.292Z,27.70
2022-10-01T11:56:13.541Z,30.67
2022-10-01T11:59:09.927Z,31.58
2022-10-01T12:01:50.541Z,31.52
2022-10-01T12:04:42.518Z,35.55
2022-10-01T12:07:15.733Z,36.40
2022-10-01T12:10:12.060Z,42.45
2022-10-01T12:12:47.586Z,42.17
2022-10-01T12:15:23.206Z,50.60
2022-10-01T12:17:56.737Z,54.97
2022-10-01T12:20:48.541Z,53.40
2022-10-01T12:23:22.001Z,49.40
2022-10-01T12:25:49.652Z,54.63
2022-10-01T12:28:26.199Z,52.88
2022-10-01T12:31:07.963Z,44.47
2022-10-01T12:34:10.186Z,43.90
2022-10-01T12:36:42.922Z,58.03
2022-10-01T12:39:54.471Z,43.08
2022-10-01T12:42:48.904Z,36.20
2022-10-01T12:45:40.230Z,43.30
2022-10-01T12:48:38.323Z,40.45
2022-10-01T12:51:37.221Z,39.58
2022-10-01T12:54:21.346Z,38.28
2022-10-01T12:57:03.873Z,33.75
2022-10-01T12:59:52.910Z,37.00
2022-10-01T13:02:58.399Z,38.05
2022-10-01T13:05:35.361Z,34.67
2022-10-01T13:08:17.520Z,35.53
2022-10-01T13:10:54.419Z,38.45
2022-10-01T13:13:33.000Z,39.70
2022-10-01T13:16:32.730Z,32.40
2022-10-01T13:19:03.817Z,28.75
2022-10-01T13:21:56.176Z,26.17
2022-10-01T13:24:56.354Z,26.95
2022-10-01T13:30:24.845Z,28.88
2022-10-01T13:32:54.033Z,26.80
2022-10-01T13:35:35.791Z,26.73
2022-10-01T13:38:31.408Z,29.13
2022-10-01T13:41:01.262Z,30.45
2022-10-01T13:43:30.613Z,28.70
2022-10-01T13:46:07.254Z,33.70
2022-10-01T13:48:37.191Z,24.20
2022-10-01T13:51:09.332Z,24.27
2022-10-01T13:53:42.669Z,18.25
2022-10-01T13:56:15.585Z,21.67
2022-10-01T13:58:44.828Z,18.92
2022-10-01T14:01:17.758Z,16.42
2022-10-01T14:03:59.598Z,21.85
2022-10-01T14:06:58.972Z,17.50
2022-10-01T14:09:42.750Z,19.57
2022-10-01T14:12:43.739Z,23.00
2022-10-01T14:15:59.318Z,20.27
2022-10-01T14:18:48.671Z,18.35
2022-10-01T14:21:46.231Z,18.08
2022-10-01T14:24:31.924Z,18.35
2022-10-01T14:27:11.260Z,18.17
2022-10-01T14:29:57.878Z,17.67
2022-10-01T14:32:42.857Z,21.42
2022-10-01T14:35:25.844Z,19.73
2022-10-01T14:38:00.664Z,19.85
2022-10-01T14:40:40.040Z,23.75
2022-10-01T14:43:19.235Z,24.80
2022-10-01T14:46:07.487Z,24.05
2022-10-01T14:52:36.791Z,27.70
2022-10-01T14:55:07.567Z,22.80
2022-10-01T14:57:45.210Z,23.25
2022-10-01T15:00:18.850Z,21.58
2022-10-01T15:02:52.628Z,24.10
2022-10-01T15:05:29.177Z,24.73
2022-10-01T15:08:35.905Z,31.55
2022-10-01T15:11:07.466Z,24.08
2022-10-01T15:13:38.829Z,29.33
2022-10-01T15:16:13.607Z,24.67
2022-10-01T15:18:49.175Z,23.98
2022-10-01T15:21:25.904Z,19.67
2022-10-01T15:27:09.011Z,27.00
2022-10-01T15:33:10.772Z,34.90
2022-10-01T15:36:15.984Z,19.50
2022-10-01T15:38:58.387Z,34.65
2022-10-01T15:41:34.333Z,26.50
2022-10-01T15:44:50.836Z,28.33
2022-10-01T15:51:52.037Z,22.58
2022-10-01T15:54:59.672Z,26.67
2022-10-01T16:01:09.617Z,23.85
2022-10-01T16:04:30.386Z,24.38
2022-10-01T16:07:56.454Z,23.08
2022-10-01T16:11:07.359Z,20.38
2022-10-01T16:17:28.776Z,16.75
2022-10-01T16:20:18.567Z,16.85
2022-10-01T16:22:46.251Z,21.45
2022-10-01T16:25:29.217Z,21.20
2022-10-01T16:28:04.301Z,20.33
2022-10-01T16:30:34.052Z,21.80
2022-10-01T16:33:04.934Z,19.20
2022-10-01T16:41:34.269Z,19.80
2022-10-01T16:44:14.459Z,23.90
2022-10-01T16:46:56.941Z,23.63
2022-10-01T16:50:18.330Z,22.65
2022-10-01T16:52:46.186Z,25.83
2022-10-01T16:55:38.740Z,32.05
2022-10-01T16:58:07.726Z,24.60
2022-10-01T17:00:37.449Z,25.38
2022-10-01T17:03:09.683Z,25.45
2022-10-01T17:05:37.902Z,28.13
2022-10-01T17:08:44.409Z,24.73
2022-10-01T17:11:34.581Z,29.73
2022-10-01T17:14:18.542Z,31.98
2022-10-01T17:16:52.290Z,37.42
2022-10-01T17:22:59.530Z,35.67
2022-10-01T17:25:39.340Z,38.95
2022-10-01T17:28:58.661Z,38.85
2022-10-01T17:35:27.196Z,42.47
2022-10-01T17:38:19.588Z,39.67
2022-10-01T17:41:24.282Z,43.65
2022-10-01T17:44:18.575Z,38.58
2022-10-01T17:47:15.118Z,40.90
2022-10-01T17:57:10.739Z,42.97
2022-10-01T18:00:09.410Z,47.20
2022-10-01T18:02:42.635Z,43.60
2022-10-01T18:05:18.721Z,42.63
2022-10-01T18:08:00.878Z,40.13
2022-10-01T18:10:54.259Z,39.33
2022-10-01T18:14:30.836Z,43.83
2022-10-01T18:20:05.960Z,41.40
2022-10-01T18:23:03.854Z,46.60
2022-10-01T18:25:57.284Z,47.65
2022-10-01T18:28:36.056Z,50.50
2022-10-01T18:31:39.184Z,51.95
2022-10-01T18:37:56.946Z,47.95
2022-10-01T18:40:39.640Z,46.55
2022-10-01T18:43:14.744Z,53.85
2022-10-01T18:46:33.813Z,53.63
2022-10-01T18:49:30.522Z,74.38
2022-10-01T18:52:12.671Z,83.05
2022-10-01T18:54:42.455Z,73.97
2022-10-01T18:57:31.312Z,78.20
2022-10-01T19:00:05.428Z,75.10
2022-10-01T19:03:06.047Z,83.35
2022-10-01T19:06:10.572Z,63.00
2022-10-01T19:09:02.058Z,65.10
2022-10-01T19:11:44.521Z,89.45
2022-10-01T19:14:36.570Z,82.28
2022-10-01T19:17:06.613Z,39.90
2022-10-01T19:19:48.725Z,31.92
2022-10-01T19:22:24.896Z,28.70
2022-10-01T19:25:18.444Z,24.40
2022-10-01T19:27:52.188Z,55.67
2022-10-01T19:30:22.591Z,48.50
2022-10-01T19:35:32.296Z,34.38
2022-10-01T19:38:15.186Z,43.10
2022-10-01T19:40:53.805Z,35.25
2022-10-01T19:43:42.640Z,53.28
2022-10-01T19:46:18.023Z,46.95
2022-10-01T19:48:55.046Z,37.25
2022-10-01T19:51:25.079Z,42.53
2022-10-01T19:54:00.512Z,45.95
2022-10-01T19:56:31.215Z,32.65
2022-10-01T19:59:14.947Z,36.30
2022-10-01T20:01:52.053Z,28.88
2022-10-01T20:04:40.524Z,34.90
2022-10-01T20:07:20.855Z,39.25
2022-10-01T20:10:13.057Z,30.00
2022-10-01T20:12:58.580Z,39.17
2022-10-01T20:15:52.754Z,27.88
2022-10-01T20:18:29.033Z,33.97
2022-10-01T20:21:08.352Z,28.02
2022-10-01T20:24:07.705Z,44.90
2022-10-01T20:26:44.541Z,48.05
2022-10-01T20:29:43.747Z,46.45
2022-10-01T20:32:19.176Z,41.17
2022-10-01T20:34:50.192Z,39.70
2022-10-01T20:37:36.529Z,38.25
2022-10-01T20:40:28.822Z,35.47
2022-10-01T20:43:14.536Z,26.35
2022-10-01T20:45:43.580Z,32.55
2022-10-01T20:48:31.960Z,21.60
2022-10-01T20:51:09.913Z,25.20
2022-10-01T20:53:47.029Z,19.38
2022-10-01T20:56:23.281Z,19.95
2022-10-01T20:58:56.706Z,19.00
2022-10-01T21:01:27.120Z,18.70
2022-10-01T21:04:01.732Z,13.48
2022-10-01T21:06:38.897Z,18.95
2022-10-01T21:09:18.159Z,13.85
2022-10-01T21:11:50.097Z,11.95
2022-10-01T21:14:29.085Z,16.60
2022-10-01T21:17:11.507Z,11.85
2022-10-01T21:20:12.622Z,25.67
2022-10-01T21:23:21.542Z,10.95
2022-10-01T21:25:59.191Z,11.98
2022-10-01T21:29:11.460Z,27.05
2022-10-01T21:32:05.136Z,23.05
2022-10-01T21:34:55.568Z,14.77
2022-10-01T21:37:31.870Z,28.85
2022-10-01T21:40:31.197Z,23.98
2022-10-01T21:43:25.436Z,19.60
2022-10-01T21:46:09.915Z,21.08
2022-10-01T21:48:49.769Z,14.00
2022-10-01T21:51:24.116Z,14.03
2022-10-01T21:54:36.184Z,18.63
2022-10-01T21:57:32.056Z,17.63
2022-10-01T22:00:12.166Z,14.02
2022-10-01T22:02:39.354Z,25.90
2022-10-01T22:05:12.254Z,21.63
2022-10-01T22:08:09.649Z,17.10
2022-10-01T22:10:44.427Z,13.10
2022-10-01T22:13:19.296Z,21.52
2022-10-01T22:15:49.460Z,11.45
2022-10-01T22:18:40.116Z,16.58
2022-10-01T22:21:13.447Z,10.13
2022-10-01T22:23:50.286Z,11.23
2022-10-01T22:26:22.700Z,11.88
2022-10-01T22:28:55.383Z,9.73
2022-10-01T22:31:27.628Z,16.17
2022-10-01T22:34:05.708Z,9.55
2022-10-01T22:36:58.826Z,9.95
2022-10-01T22:39:32.378Z,7.97
2022-10-01T22:42:07.367Z,6.40
2022-10-01T22:44:34.418Z,11.90
2022-10-01T22:47:29.580Z,10.25
2022-10-01T22:50:37.192Z,7.93
2022-10-01T22:53:23.113Z,9.30
2022-10-01T22:55:55.201Z,12.55
2022-10-01T22:58:41.271Z,9.05
2022-10-01T23:01:38.567Z,7.75
2022-10-01T23:04:15.175Z,7.22
2022-10-01T23:07:00.869Z,7.07
2022-10-01T23:09:38.190Z,9.25
2022-10-01T23:12:08.096Z,10.10
2022-10-01T23:15:06.074Z,7.25
2022-10-01T23:17:54.311Z,8.73
2022-10-01T23:20:33.103Z,6.50
2022-10-01T23:23:12.700Z,5.40
2022-10-01T23:26:01.926Z,7.87
2022-10-01T23:28:34.963Z,6.55
2022-10-01T23:31:16.099Z,7.07
2022-10-01T23:34:11.308Z,6.53
2022-10-01T23:36:53.635Z,7.82
2022-10-01T23:39:27.006Z,8.30
2022-10-01T23:42:00.305Z,6.85
2022-10-01T23:44:36.419Z,5.80
2022-10-01T23:47:10.036Z,7.38
2022-10-01T23:49:49.686Z,6.28
2022-10-01T23:52:48.372Z,10.25
2022-10-01T23:55:46.877Z,5.45
2022-10-01T23:58:16.044Z,6.05
